sensor_id;sensor_type;location;lat;lon;timestamp;P1;durP1;ratioP1;P2;durP2;ratioP2
1178;SDS011;578;48.408;10.004;2022-09-09T00:00:48;6.35;;;3.42;;
1178;SDS011;578;48.408;10.004;2022-09-09T00:03:22;6.10;;;3.30;;
1178;SDS011;578;48.408;10.004;2022-09-09T00:05:54;7.60;;;3.78;;
1178;SDS011;578;48.408;10.004;2022-09-09T00:08:31;5.90;;;3.50;;
1178;SDS011;578;48.408;10.004;2022-09-09T00:11:04;6.80;;;3.35;;
1178;SDS011;578;48.408;10.004;2022-09-09T00:13:32;7.75;;;3.60;;
1178;SDS011;578;48.408;10.004;2022-09-09T00:16:07;6.20;;;3.33;;
1178;SDS011;578;48.408;10.004;2022-09-09T00:18:46;9.30;;;3.85;;
1178;SDS011;578;48.408;10.004;2022-09-09T00:21:21;8.80;;;4.10;;
1178;SDS011;578;48.408;10.004;2022-09-09T00:23:53;7.43;;;3.50;;
1178;SDS011;578;48.408;10.004;2022-09-09T00:26:21;7.38;;;3.88;;
1178;SDS011;578;48.408;10.004;2022-09-09T00:28:58;7.45;;;3.90;;
1178;SDS011;578;48.408;10.004;2022-09-09T00:31:31;5.32;;;3.40;;
1178;SDS011;578;48.408;10.004;2022-09-09T00:34:00;4.88;;;3.13;;
1178;SDS011;578;48.408;10.004;2022-09-09T00:36:35;5.15;;;3.20;;
1178;SDS011;578;48.408;10.004;2022-09-09T00:39:03;5.20;;;3.25;;
1178;SDS011;578;48.408;10.004;2022-09-09T00:41:33;6.47;;;3.40;;
1178;SDS011;578;48.408;10.004;2022-09-09T00:44:15;8.82;;;4.40;;
1178;SDS011;578;48.408;10.004;2022-09-09T00:47:01;7.60;;;3.70;;
1178;SDS011;578;48.408;10.004;2022-09-09T00:49:40;7.97;;;4.00;;
1178;SDS011;578;48.408;10.004;2022-09-09T00:52:23;7.73;;;3.90;;
1178;SDS011;578;48.408;10.004;2022-09-09T00:54:59;6.40;;;3.33;;
1178;SDS011;578;48.408;10.004;2022-09-09T00:57:32;6.65;;;3.70;;
1178;SDS011;578;48.408;10.004;2022-09-09T01:00:16;6.70;;;3.70;;
1178;SDS011;578;48.408;10.004;2022-09-09T01:02:49;7.03;;;3.10;;
1178;SDS011;578;48.408;10.004;2022-09-09T01:05:36;6.30;;;3.30;;
1178;SDS011;578;48.408;10.004;2022-09-09T01:08:10;6.55;;;3.38;;
1178;SDS011;578;48.408;10.004;2022-09-09T01:10:44;6.70;;;2.95;;
1178;SDS011;578;48.408;10.004;2022-09-09T01:13:19;6.15;;;3.30;;
1178;SDS011;578;48.408;10.004;2022-09-09T01:15:49;8.80;;;4.07;;
1178;SDS011;578;48.408;10.004;2022-09-09T01:18:20;5.22;;;3.20;;
1178;SDS011;578;48.408;10.004;2022-09-09T01:20:53;6.13;;;3.70;;
1178;SDS011;578;48.408;10.004;2022-09-09T01:23:38;5.35;;;3.20;;
1178;SDS011;578;48.408;10.004;2022-09-09T01:26:26;7.25;;;3.67;;
1178;SDS011;578;48.408;10.004;2022-09-09T01:28:56;7.20;;;3.63;;
1178;SDS011;578;48.408;10.004;2022-09-09T01:31:32;5.90;;;3.00;;
1178;SDS011;578;48.408;10.004;2022-09-09T01:34:04;5.90;;;3.20;;
1178;SDS011;578;48.408;10.004;2022-09-09T01:36:38;6.03;;;2.90;;
1178;SDS011;578;48.408;10.004;2022-09-09T01:39:09;5.75;;;2.80;;
1178;SDS011;578;48.408;10.004;2022-09-09T01:41:38;8.27;;;3.97;;
1178;SDS011;578;48.408;10.004;2022-09-09T01:44:05;6.32;;;3.30;;
1178;SDS011;578;48.408;10.004;2022-09-09T01:46:33;6.67;;;3.53;;
1178;SDS011;578;48.408;10.004;2022-09-09T01:49:00;5.72;;;3.60;;
1178;SDS011;578;48.408;10.004;2022-09-09T01:51:29;8.30;;;3.40;;
1178;SDS011;578;48.408;10.004;2022-09-09T01:53:57;7.53;;;4.20;;
1178;SDS011;578;48.408;10.004;2022-09-09T01:56:28;7.70;;;3.53;;
1178;SDS011;578;48.408;10.004;2022-09-09T01:59:09;10.85;;;4.55;;
1178;SDS011;578;48.408;10.004;2022-09-09T02:01:51;7.45;;;4.07;;
1178;SDS011;578;48.408;10.004;2022-09-09T02:04:27;6.45;;;3.55;;
1178;SDS011;578;48.408;10.004;2022-09-09T02:07:02;6.65;;;4.18;;
1178;SDS011;578;48.408;10.004;2022-09-09T02:09:32;8.15;;;4.00;;
1178;SDS011;578;48.408;10.004;2022-09-09T02:12:00;8.85;;;4.50;;
1178;SDS011;578;48.408;10.004;2022-09-09T02:14:34;7.47;;;4.75;;
1178;SDS011;578;48.408;10.004;2022-09-09T02:17:07;7.68;;;4.78;;
1178;SDS011;578;48.408;10.004;2022-09-09T02:19:36;9.38;;;5.00;;
1178;SDS011;578;48.408;10.004;2022-09-09T02:22:08;6.32;;;4.18;;
1178;SDS011;578;48.408;10.004;2022-09-09T02:24:35;7.85;;;4.35;;
1178;SDS011;578;48.408;10.004;2022-09-09T02:27:04;9.70;;;4.28;;
1178;SDS011;578;48.408;10.004;2022-09-09T02:29:36;10.40;;;5.10;;
1178;SDS011;578;48.408;10.004;2022-09-09T02:32:07;7.35;;;4.30;;
1178;SDS011;578;48.408;10.004;2022-09-09T02:34:38;9.73;;;4.18;;
1178;SDS011;578;48.408;10.004;2022-09-09T02:37:09;10.43;;;4.00;;
1178;SDS011;578;48.408;10.004;2022-09-09T02:39:37;6.70;;;3.90;;
1178;SDS011;578;48.408;10.004;2022-09-09T02:42:04;6.55;;;3.75;;
1178;SDS011;578;48.408;10.004;2022-09-09T02:44:33;7.55;;;4.15;;
1178;SDS011;578;48.408;10.004;2022-09-09T02:47:09;6.68;;;3.90;;
1178;SDS011;578;48.408;10.004;2022-09-09T02:49:48;9.00;;;3.93;;
1178;SDS011;578;48.408;10.004;2022-09-09T02:52:25;7.60;;;3.90;;
1178;SDS011;578;48.408;10.004;2022-09-09T02:54:57;6.93;;;3.90;;
1178;SDS011;578;48.408;10.004;2022-09-09T02:57:30;8.30;;;4.00;;
1178;SDS011;578;48.408;10.004;2022-09-09T02:59:59;6.45;;;4.10;;
1178;SDS011;578;48.408;10.004;2022-09-09T03:02:28;6.40;;;3.80;;
1178;SDS011;578;48.408;10.004;2022-09-09T03:04:55;8.73;;;3.80;;
1178;SDS011;578;48.408;10.004;2022-09-09T03:07:23;8.75;;;3.70;;
1178;SDS011;578;48.408;10.004;2022-09-09T03:09:49;7.38;;;3.70;;
1178;SDS011;578;48.408;10.004;2022-09-09T03:12:17;6.93;;;3.70;;
1178;SDS011;578;48.408;10.004;2022-09-09T03:14:44;8.05;;;4.07;;
1178;SDS011;578;48.408;10.004;2022-09-09T03:17:11;6.43;;;4.00;;
1178;SDS011;578;48.408;10.004;2022-09-09T03:19:40;6.20;;;4.10;;
1178;SDS011;578;48.408;10.004;2022-09-09T03:22:08;6.97;;;3.80;;
1178;SDS011;578;48.408;10.004;2022-09-09T03:24:36;7.32;;;3.50;;
1178;SDS011;578;48.408;10.004;2022-09-09T03:27:03;9.25;;;3.70;;
1178;SDS011;578;48.408;10.004;2022-09-09T03:29:30;5.75;;;3.60;;
1178;SDS011;578;48.408;10.004;2022-09-09T03:31:56;7.88;;;3.60;;
1178;SDS011;578;48.408;10.004;2022-09-09T03:34:23;6.90;;;4.00;;
1178;SDS011;578;48.408;10.004;2022-09-09T03:36:51;7.13;;;3.70;;
1178;SDS011;578;48.408;10.004;2022-09-09T03:39:18;7.80;;;4.23;;
1178;SDS011;578;48.408;10.004;2022-09-09T03:41:44;6.30;;;3.70;;
1178;SDS011;578;48.408;10.004;2022-09-09T03:44:13;8.80;;;3.90;;
1178;SDS011;578;48.408;10.004;2022-09-09T03:46:40;7.00;;;3.80;;
1178;SDS011;578;48.408;10.004;2022-09-09T03:49:06;6.88;;;3.95;;
1178;SDS011;578;48.408;10.004;2022-09-09T03:51:35;6.68;;;3.60;;
1178;SDS011;578;48.408;10.004;2022-09-09T03:54:04;6.70;;;3.40;;
1178;SDS011;578;48.408;10.004;2022-09-09T03:56:33;8.05;;;3.80;;
1178;SDS011;578;48.408;10.004;2022-09-09T03:59:00;5.38;;;3.25;;
1178;SDS011;578;48.408;10.004;2022-09-09T04:01:27;7.18;;;3.95;;
1178;SDS011;578;48.408;10.004;2022-09-09T04:03:54;7.40;;;4.15;;
1178;SDS011;578;48.408;10.004;2022-09-09T04:06:23;8.60;;;4.25;;
1178;SDS011;578;48.408;10.004;2022-09-09T04:08:50;8.07;;;4.55;;
1178;SDS011;578;48.408;10.004;2022-09-09T04:11:19;6.85;;;4.30;;
1178;SDS011;578;48.408;10.004;2022-09-09T04:13:45;9.95;;;4.47;;
1178;SDS011;578;48.408;10.004;2022-09-09T04:16:12;6.88;;;4.30;;
1178;SDS011;578;48.408;10.004;2022-09-09T04:18:39;7.82;;;4.90;;
1178;SDS011;578;48.408;10.004;2022-09-09T04:21:06;7.43;;;5.45;;
1178;SDS011;578;48.408;10.004;2022-09-09T04:23:35;5.80;;;4.90;;
1178;SDS011;578;48.408;10.004;2022-09-09T04:26:02;7.45;;;4.20;;
1178;SDS011;578;48.408;10.004;2022-09-09T04:28:32;6.10;;;4.25;;
1178;SDS011;578;48.408;10.004;2022-09-09T04:31:03;6.82;;;4.28;;
1178;SDS011;578;48.408;10.004;2022-09-09T04:33:31;9.30;;;4.85;;
1178;SDS011;578;48.408;10.004;2022-09-09T04:35:58;7.05;;;4.80;;
1178;SDS011;578;48.408;10.004;2022-09-09T04:38:25;7.38;;;4.63;;
1178;SDS011;578;48.408;10.004;2022-09-09T04:40:52;7.05;;;4.70;;
1178;SDS011;578;48.408;10.004;2022-09-09T04:43:19;7.78;;;4.85;;
1178;SDS011;578;48.408;10.004;2022-09-09T04:45:48;8.13;;;4.80;;
1178;SDS011;578;48.408;10.004;2022-09-09T04:48:16;5.18;;;4.35;;
1178;SDS011;578;48.408;10.004;2022-09-09T04:50:43;5.32;;;4.35;;
1178;SDS011;578;48.408;10.004;2022-09-09T04:53:10;6.63;;;5.05;;
1178;SDS011;578;48.408;10.004;2022-09-09T04:55:36;8.43;;;4.40;;
1178;SDS011;578;48.408;10.004;2022-09-09T04:58:03;6.57;;;4.50;;
1178;SDS011;578;48.408;10.004;2022-09-09T05:00:31;7.40;;;4.80;;
1178;SDS011;578;48.408;10.004;2022-09-09T05:03:01;7.32;;;4.93;;
1178;SDS011;578;48.408;10.004;2022-09-09T05:05:29;8.45;;;5.20;;
1178;SDS011;578;48.408;10.004;2022-09-09T05:08:00;9.20;;;5.57;;
1178;SDS011;578;48.408;10.004;2022-09-09T05:10:27;6.73;;;4.50;;
1178;SDS011;578;48.408;10.004;2022-09-09T05:12:54;6.18;;;5.03;;
1178;SDS011;578;48.408;10.004;2022-09-09T05:15:21;8.43;;;5.35;;
1178;SDS011;578;48.408;10.004;2022-09-09T05:17:48;7.68;;;5.63;;
1178;SDS011;578;48.408;10.004;2022-09-09T05:20:18;10.43;;;6.55;;
1178;SDS011;578;48.408;10.004;2022-09-09T05:22:45;8.70;;;6.60;;
1178;SDS011;578;48.408;10.004;2022-09-09T05:25:12;8.50;;;5.90;;
1178;SDS011;578;48.408;10.004;2022-09-09T05:27:38;8.30;;;6.27;;
1178;SDS011;578;48.408;10.004;2022-09-09T05:30:06;5.93;;;4.77;;
1178;SDS011;578;48.408;10.004;2022-09-09T05:32:33;5.22;;;4.53;;
1178;SDS011;578;48.408;10.004;2022-09-09T05:35:00;6.55;;;5.03;;
1178;SDS011;578;48.408;10.004;2022-09-09T05:37:28;5.38;;;4.53;;
1178;SDS011;578;48.408;10.004;2022-09-09T05:39:57;9.07;;;5.72;;
1178;SDS011;578;48.408;10.004;2022-09-09T05:42:23;8.75;;;5.10;;
1178;SDS011;578;48.408;10.004;2022-09-09T05:44:51;7.53;;;5.57;;
1178;SDS011;578;48.408;10.004;2022-09-09T05:47:19;7.20;;;5.60;;
1178;SDS011;578;48.408;10.004;2022-09-09T05:49:46;7.35;;;5.70;;
1178;SDS011;578;48.408;10.004;2022-09-09T05:52:12;12.00;;;6.55;;
1178;SDS011;578;48.408;10.004;2022-09-09T05:54:40;11.32;;;6.80;;
1178;SDS011;578;48.408;10.004;2022-09-09T05:57:08;8.90;;;5.90;;
1178;SDS011;578;48.408;10.004;2022-09-09T05:59:34;7.97;;;5.68;;
1178;SDS011;578;48.408;10.004;2022-09-09T06:02:01;10.13;;;5.60;;
1178;SDS011;578;48.408;10.004;2022-09-09T06:04:28;5.80;;;5.15;;
1178;SDS011;578;48.408;10.004;2022-09-09T06:06:55;7.15;;;5.90;;
1178;SDS011;578;48.408;10.004;2022-09-09T06:09:22;8.82;;;5.70;;
1178;SDS011;578;48.408;10.004;2022-09-09T06:11:50;8.90;;;6.00;;
1178;SDS011;578;48.408;10.004;2022-09-09T06:14:17;6.63;;;5.68;;
1178;SDS011;578;48.408;10.004;2022-09-09T06:16:43;7.78;;;5.88;;
1178;SDS011;578;48.408;10.004;2022-09-09T06:19:11;8.20;;;5.00;;
1178;SDS011;578;48.408;10.004;2022-09-09T06:21:38;8.07;;;5.57;;
1178;SDS011;578;48.408;10.004;2022-09-09T06:24:05;6.75;;;4.68;;
1178;SDS011;578;48.408;10.004;2022-09-09T06:26:33;6.27;;;4.87;;
1178;SDS011;578;48.408;10.004;2022-09-09T06:29:03;7.90;;;4.63;;
1178;SDS011;578;48.408;10.004;2022-09-09T06:31:30;7.20;;;4.80;;
1178;SDS011;578;48.408;10.004;2022-09-09T06:33:59;9.88;;;5.80;;
1178;SDS011;578;48.408;10.004;2022-09-09T06:36:27;8.02;;;5.32;;
1178;SDS011;578;48.408;10.004;2022-09-09T06:38:55;6.27;;;4.67;;
1178;SDS011;578;48.408;10.004;2022-09-09T06:41:22;6.53;;;4.30;;
1178;SDS011;578;48.408;10.004;2022-09-09T06:43:51;6.45;;;4.90;;
1178;SDS011;578;48.408;10.004;2022-09-09T06:46:19;8.63;;;5.50;;
1178;SDS011;578;48.408;10.004;2022-09-09T06:48:47;7.22;;;4.75;;
1178;SDS011;578;48.408;10.004;2022-09-09T06:51:15;6.72;;;4.30;;
1178;SDS011;578;48.408;10.004;2022-09-09T06:53:43;5.63;;;4.07;;
1178;SDS011;578;48.408;10.004;2022-09-09T06:56:17;5.85;;;4.30;;
1178;SDS011;578;48.408;10.004;2022-09-09T06:58:45;7.35;;;4.43;;
1178;SDS011;578;48.408;10.004;2022-09-09T07:01:14;5.88;;;3.30;;
1178;SDS011;578;48.408;10.004;2022-09-09T07:03:44;4.97;;;3.00;;
1178;SDS011;578;48.408;10.004;2022-09-09T07:06:13;3.70;;;2.10;;
1178;SDS011;578;48.408;10.004;2022-09-09T07:08:42;6.25;;;2.60;;
1178;SDS011;578;48.408;10.004;2022-09-09T07:11:09;4.30;;;2.50;;
1178;SDS011;578;48.408;10.004;2022-09-09T07:13:37;5.00;;;2.43;;
1178;SDS011;578;48.408;10.004;2022-09-09T07:16:04;4.10;;;2.40;;
1178;SDS011;578;48.408;10.004;2022-09-09T07:18:31;4.67;;;1.97;;
1178;SDS011;578;48.408;10.004;2022-09-09T07:21:01;4.93;;;2.50;;
1178;SDS011;578;48.408;10.004;2022-09-09T07:23:28;3.17;;;1.93;;
1178;SDS011;578;48.408;10.004;2022-09-09T07:25:56;5.00;;;2.80;;
1178;SDS011;578;48.408;10.004;2022-09-09T07:28:23;3.30;;;2.00;;
1178;SDS011;578;48.408;10.004;2022-09-09T07:30:54;4.70;;;2.27;;
1178;SDS011;578;48.408;10.004;2022-09-09T07:33:21;6.20;;;2.20;;
1178;SDS011;578;48.408;10.004;2022-09-09T07:35:48;3.37;;;2.00;;
1178;SDS011;578;48.408;10.004;2022-09-09T07:38:16;2.73;;;2.13;;
1178;SDS011;578;48.408;10.004;2022-09-09T07:40:43;5.33;;;2.60;;
1178;SDS011;578;48.408;10.004;2022-09-09T07:43:10;5.13;;;2.53;;
1178;SDS011;578;48.408;10.004;2022-09-09T07:45:37;3.33;;;2.10;;
1178;SDS011;578;48.408;10.004;2022-09-09T07:48:05;5.27;;;2.47;;
1178;SDS011;578;48.408;10.004;2022-09-09T07:50:32;3.87;;;2.10;;
1178;SDS011;578;48.408;10.004;2022-09-09T07:52:59;4.50;;;2.00;;
1178;SDS011;578;48.408;10.004;2022-09-09T07:55:27;4.67;;;2.30;;
1178;SDS011;578;48.408;10.004;2022-09-09T07:57:54;3.40;;;2.30;;
1178;SDS011;578;48.408;10.004;2022-09-09T08:00:22;2.63;;;2.30;;
1178;SDS011;578;48.408;10.004;2022-09-09T08:02:48;4.57;;;3.07;;
1178;SDS011;578;48.408;10.004;2022-09-09T08:05:15;3.97;;;3.00;;
1178;SDS011;578;48.408;10.004;2022-09-09T08:07:43;3.80;;;3.03;;
1178;SDS011;578;48.408;10.004;2022-09-09T08:10:10;3.50;;;2.70;;
1178;SDS011;578;48.408;10.004;2022-09-09T08:12:40;4.50;;;3.20;;
1178;SDS011;578;48.408;10.004;2022-09-09T08:15:07;4.07;;;3.77;;
1178;SDS011;578;48.408;10.004;2022-09-09T08:17:34;4.50;;;3.43;;
1178;SDS011;578;48.408;10.004;2022-09-09T08:20:03;4.57;;;3.10;;
1178;SDS011;578;48.408;10.004;2022-09-09T08:22:30;4.70;;;4.30;;
1178;SDS011;578;48.408;10.004;2022-09-09T08:24:57;5.43;;;3.40;;
1178;SDS011;578;48.408;10.004;2022-09-09T08:27:23;4.47;;;3.10;;
1178;SDS011;578;48.408;10.004;2022-09-09T08:29:51;5.00;;;3.17;;
1178;SDS011;578;48.408;10.004;2022-09-09T08:32:18;4.40;;;3.40;;
1178;SDS011;578;48.408;10.004;2022-09-09T08:34:45;8.73;;;2.53;;
1178;SDS011;578;48.408;10.004;2022-09-09T08:37:12;6.07;;;2.57;;
1178;SDS011;578;48.408;10.004;2022-09-09T08:39:39;18.33;;;3.83;;
1178;SDS011;578;48.408;10.004;2022-09-09T08:42:13;3.43;;;2.27;;
1178;SDS011;578;48.408;10.004;2022-09-09T08:44:59;4.30;;;2.37;;
1178;SDS011;578;48.408;10.004;2022-09-09T08:47:39;4.30;;;2.20;;
1178;SDS011;578;48.408;10.004;2022-09-09T08:50:17;3.33;;;2.30;;
1178;SDS011;578;48.408;10.004;2022-09-09T08:52:51;6.10;;;3.17;;
1178;SDS011;578;48.408;10.004;2022-09-09T08:55:25;2.80;;;2.50;;
1178;SDS011;578;48.408;10.004;2022-09-09T08:57:58;2.13;;;1.80;;
1178;SDS011;578;48.408;10.004;2022-09-09T09:00:35;3.43;;;1.83;;
1178;SDS011;578;48.408;10.004;2022-09-09T09:03:22;5.57;;;2.30;;
1178;SDS011;578;48.408;10.004;2022-09-09T09:05:56;4.90;;;2.20;;
1178;SDS011;578;48.408;10.004;2022-09-09T09:08:29;4.50;;;2.33;;
1178;SDS011;578;48.408;10.004;2022-09-09T09:11:03;5.63;;;1.93;;
1178;SDS011;578;48.408;10.004;2022-09-09T09:13:32;3.50;;;2.17;;
1178;SDS011;578;48.408;10.004;2022-09-09T09:16:22;3.10;;;1.70;;
1178;SDS011;578;48.408;10.004;2022-09-09T09:18:52;4.30;;;1.90;;
1178;SDS011;578;48.408;10.004;2022-09-09T09:21:21;4.20;;;1.65;;
1178;SDS011;578;48.408;10.004;2022-09-09T09:23:58;5.00;;;1.50;;
1178;SDS011;578;48.408;10.004;2022-09-09T09:26:29;3.90;;;1.80;;
1178;SDS011;578;48.408;10.004;2022-09-09T09:28:59;5.30;;;1.98;;
1178;SDS011;578;48.408;10.004;2022-09-09T09:31:35;4.43;;;2.05;;
1178;SDS011;578;48.408;10.004;2022-09-09T09:34:02;4.38;;;1.95;;
1178;SDS011;578;48.408;10.004;2022-09-09T09:36:33;5.07;;;2.40;;
1178;SDS011;578;48.408;10.004;2022-09-09T09:39:01;4.40;;;1.80;;
1178;SDS011;578;48.408;10.004;2022-09-09T09:41:30;6.07;;;1.70;;
1178;SDS011;578;48.408;10.004;2022-09-09T09:43:59;4.10;;;2.00;;
1178;SDS011;578;48.408;10.004;2022-09-09T09:46:26;3.50;;;1.50;;
1178;SDS011;578;48.408;10.004;2022-09-09T09:48:58;3.37;;;1.70;;
1178;SDS011;578;48.408;10.004;2022-09-09T09:51:26;3.60;;;1.50;;
1178;SDS011;578;48.408;10.004;2022-09-09T09:54:00;3.90;;;1.43;;
1178;SDS011;578;48.408;10.004;2022-09-09T09:56:34;16.83;;;2.47;;
1178;SDS011;578;48.408;10.004;2022-09-09T09:59:02;5.50;;;1.70;;
1178;SDS011;578;48.408;10.004;2022-09-09T10:01:29;9.57;;;2.03;;
1178;SDS011;578;48.408;10.004;2022-09-09T10:04:00;3.60;;;1.30;;
1178;SDS011;578;48.408;10.004;2022-09-09T10:06:32;4.30;;;1.30;;
1178;SDS011;578;48.408;10.004;2022-09-09T10:09:01;4.20;;;1.40;;
1178;SDS011;578;48.408;10.004;2022-09-09T10:11:39;5.38;;;1.67;;
1178;SDS011;578;48.408;10.004;2022-09-09T10:14:12;3.50;;;1.70;;
1178;SDS011;578;48.408;10.004;2022-09-09T10:16:50;4.47;;;1.70;;
1178;SDS011;578;48.408;10.004;2022-09-09T10:19:30;5.18;;;1.40;;
1178;SDS011;578;48.408;10.004;2022-09-09T10:22:06;3.90;;;1.48;;
1178;SDS011;578;48.408;10.004;2022-09-09T10:24:48;3.25;;;1.23;;
1178;SDS011;578;48.408;10.004;2022-09-09T10:27:38;3.70;;;1.30;;
1178;SDS011;578;48.408;10.004;2022-09-09T10:30:16;3.40;;;1.43;;
1178;SDS011;578;48.408;10.004;2022-09-09T10:32:53;4.00;;;1.50;;
1178;SDS011;578;48.408;10.004;2022-09-09T10:35:30;3.42;;;1.55;;
1178;SDS011;578;48.408;10.004;2022-09-09T10:40:49;4.40;;;1.30;;
1178;SDS011;578;48.408;10.004;2022-09-09T10:43:37;2.97;;;1.50;;
1178;SDS011;578;48.408;10.004;2022-09-09T10:46:19;3.28;;;1.83;;
1178;SDS011;578;48.408;10.004;2022-09-09T10:49:02;3.22;;;1.40;;
1178;SDS011;578;48.408;10.004;2022-09-09T10:51:43;5.80;;;1.60;;
1178;SDS011;578;48.408;10.004;2022-09-09T10:54:29;4.07;;;1.50;;
1178;SDS011;578;48.408;10.004;2022-09-09T10:57:10;3.20;;;1.40;;
1178;SDS011;578;48.408;10.004;2022-09-09T10:59:42;2.55;;;1.30;;
1178;SDS011;578;48.408;10.004;2022-09-09T11:02:15;2.93;;;1.40;;
1178;SDS011;578;48.408;10.004;2022-09-09T11:04:48;4.05;;;1.45;;
1178;SDS011;578;48.408;10.004;2022-09-09T11:07:24;3.30;;;1.30;;
1178;SDS011;578;48.408;10.004;2022-09-09T11:09:54;2.90;;;1.10;;
1178;SDS011;578;48.408;10.004;2022-09-09T11:12:27;3.40;;;1.10;;
1178;SDS011;578;48.408;10.004;2022-09-09T11:14:57;4.97;;;1.40;;
1178;SDS011;578;48.408;10.004;2022-09-09T11:17:31;3.10;;;1.40;;
1178;SDS011;578;48.408;10.004;2022-09-09T11:20:05;3.10;;;1.00;;
1178;SDS011;578;48.408;10.004;2022-09-09T11:22:35;2.85;;;1.20;;
1178;SDS011;578;48.408;10.004;2022-09-09T11:25:07;3.50;;;1.10;;
1178;SDS011;578;48.408;10.004;2022-09-09T11:27:41;2.83;;;1.15;;
1178;SDS011;578;48.408;10.004;2022-09-09T11:30:20;3.30;;;1.10;;
1178;SDS011;578;48.408;10.004;2022-09-09T11:33:03;2.58;;;1.10;;
1178;SDS011;578;48.408;10.004;2022-09-09T11:35:45;2.40;;;1.10;;
1178;SDS011;578;48.408;10.004;2022-09-09T11:38:21;5.30;;;1.30;;
1178;SDS011;578;48.408;10.004;2022-09-09T11:40:56;3.20;;;0.90;;
1178;SDS011;578;48.408;10.004;2022-09-09T11:43:26;3.43;;;1.30;;
1178;SDS011;578;48.408;10.004;2022-09-09T11:45:56;3.97;;;1.20;;
1178;SDS011;578;48.408;10.004;2022-09-09T11:48:28;3.80;;;1.30;;
1178;SDS011;578;48.408;10.004;2022-09-09T11:50:59;3.80;;;1.10;;
1178;SDS011;578;48.408;10.004;2022-09-09T11:53:31;4.70;;;1.48;;
1178;SDS011;578;48.408;10.004;2022-09-09T11:56:05;3.67;;;1.23;;
1178;SDS011;578;48.408;10.004;2022-09-09T11:58:36;3.63;;;1.45;;
1178;SDS011;578;48.408;10.004;2022-09-09T12:04:27;4.75;;;1.80;;
1178;SDS011;578;48.408;10.004;2022-09-09T12:06:58;5.18;;;1.60;;
1178;SDS011;578;48.408;10.004;2022-09-09T12:09:33;3.45;;;1.17;;
1178;SDS011;578;48.408;10.004;2022-09-09T12:14:58;4.55;;;1.60;;
1178;SDS011;578;48.408;10.004;2022-09-09T12:17:53;3.30;;;1.10;;
1178;SDS011;578;48.408;10.004;2022-09-09T12:20:21;3.40;;;1.20;;
1178;SDS011;578;48.408;10.004;2022-09-09T12:22:57;3.20;;;1.20;;
1178;SDS011;578;48.408;10.004;2022-09-09T12:25:43;4.20;;;1.40;;
1178;SDS011;578;48.408;10.004;2022-09-09T12:28:36;3.35;;;1.10;;
1178;SDS011;578;48.408;10.004;2022-09-09T12:31:09;4.30;;;0.97;;
1178;SDS011;578;48.408;10.004;2022-09-09T12:33:42;2.70;;;1.00;;
1178;SDS011;578;48.408;10.004;2022-09-09T12:36:13;3.38;;;1.10;;
1178;SDS011;578;48.408;10.004;2022-09-09T12:38:43;3.42;;;1.10;;
1178;SDS011;578;48.408;10.004;2022-09-09T12:41:19;3.03;;;1.08;;
1178;SDS011;578;48.408;10.004;2022-09-09T12:43:47;2.53;;;0.93;;
1178;SDS011;578;48.408;10.004;2022-09-09T12:46:17;3.70;;;1.30;;
1178;SDS011;578;48.408;10.004;2022-09-09T12:48:51;6.00;;;1.30;;
1178;SDS011;578;48.408;10.004;2022-09-09T12:51:21;3.42;;;1.10;;
1178;SDS011;578;48.408;10.004;2022-09-09T12:53:52;3.30;;;1.10;;
1178;SDS011;578;48.408;10.004;2022-09-09T12:56:21;3.03;;;1.03;;
1178;SDS011;578;48.408;10.004;2022-09-09T12:58:51;4.10;;;1.30;;
1178;SDS011;578;48.408;10.004;2022-09-09T13:01:20;4.28;;;1.25;;
1178;SDS011;578;48.408;10.004;2022-09-09T13:03:48;4.00;;;1.20;;
1178;SDS011;578;48.408;10.004;2022-09-09T13:06:19;3.05;;;1.10;;
1178;SDS011;578;48.408;10.004;2022-09-09T13:08:48;3.17;;;1.10;;
1178;SDS011;578;48.408;10.004;2022-09-09T13:11:16;3.00;;;1.30;;
1178;SDS011;578;48.408;10.004;2022-09-09T13:13:50;2.90;;;1.60;;
1178;SDS011;578;48.408;10.004;2022-09-09T13:16:19;3.10;;;1.00;;
1178;SDS011;578;48.408;10.004;2022-09-09T13:18:47;3.40;;;1.30;;
1178;SDS011;578;48.408;10.004;2022-09-09T13:21:14;4.15;;;1.50;;
1178;SDS011;578;48.408;10.004;2022-09-09T13:23:41;2.95;;;1.20;;
1178;SDS011;578;48.408;10.004;2022-09-09T13:26:20;3.33;;;1.10;;
1178;SDS011;578;48.408;10.004;2022-09-09T13:28:48;3.25;;;1.20;;
1178;SDS011;578;48.408;10.004;2022-09-09T13:31:21;2.72;;;1.15;;
1178;SDS011;578;48.408;10.004;2022-09-09T13:33:52;2.13;;;1.20;;
1178;SDS011;578;48.408;10.004;2022-09-09T13:36:27;2.88;;;1.10;;
1178;SDS011;578;48.408;10.004;2022-09-09T13:38:55;2.75;;;1.10;;
1178;SDS011;578;48.408;10.004;2022-09-09T13:41:26;2.80;;;1.20;;
1178;SDS011;578;48.408;10.004;2022-09-09T13:43:56;2.95;;;1.10;;
1178;SDS011;578;48.408;10.004;2022-09-09T13:46:31;2.80;;;1.00;;
1178;SDS011;578;48.408;10.004;2022-09-09T13:49:00;3.20;;;1.40;;
1178;SDS011;578;48.408;10.004;2022-09-09T13:51:44;2.72;;;1.20;;
1178;SDS011;578;48.408;10.004;2022-09-09T13:54:13;5.95;;;1.70;;
1178;SDS011;578;48.408;10.004;2022-09-09T13:56:42;3.78;;;1.27;;
1178;SDS011;578;48.408;10.004;2022-09-09T13:59:11;3.70;;;1.00;;
1178;SDS011;578;48.408;10.004;2022-09-09T14:01:40;4.27;;;1.40;;
1178;SDS011;578;48.408;10.004;2022-09-09T14:04:07;4.30;;;1.30;;
1178;SDS011;578;48.408;10.004;2022-09-09T14:06:35;3.30;;;1.50;;
1178;SDS011;578;48.408;10.004;2022-09-09T14:09:03;2.63;;;1.20;;
1178;SDS011;578;48.408;10.004;2022-09-09T14:11:34;3.00;;;1.10;;
1178;SDS011;578;48.408;10.004;2022-09-09T14:14:00;3.80;;;1.08;;
1178;SDS011;578;48.408;10.004;2022-09-09T14:16:27;3.47;;;1.20;;
1178;SDS011;578;48.408;10.004;2022-09-09T14:18:55;3.42;;;1.10;;
1178;SDS011;578;48.408;10.004;2022-09-09T14:21:22;2.40;;;1.15;;
1178;SDS011;578;48.408;10.004;2022-09-09T14:23:49;2.70;;;1.10;;
1178;SDS011;578;48.408;10.004;2022-09-09T14:26:16;4.30;;;1.08;;
1178;SDS011;578;48.408;10.004;2022-09-09T14:28:43;2.43;;;1.00;;
1178;SDS011;578;48.408;10.004;2022-09-09T14:31:11;4.53;;;1.05;;
1178;SDS011;578;48.408;10.004;2022-09-09T14:33:38;3.17;;;1.30;;
1178;SDS011;578;48.408;10.004;2022-09-09T14:36:07;5.60;;;1.60;;
1178;SDS011;578;48.408;10.004;2022-09-09T14:38:34;4.80;;;1.30;;
1178;SDS011;578;48.408;10.004;2022-09-09T14:41:04;4.22;;;1.27;;
1178;SDS011;578;48.408;10.004;2022-09-09T14:43:31;2.00;;;1.00;;
1178;SDS011;578;48.408;10.004;2022-09-09T14:45:58;3.63;;;1.30;;
1178;SDS011;578;48.408;10.004;2022-09-09T14:48:31;3.60;;;1.00;;
1178;SDS011;578;48.408;10.004;2022-09-09T14:51:04;3.97;;;1.20;;
1178;SDS011;578;48.408;10.004;2022-09-09T14:53:33;3.53;;;1.48;;
1178;SDS011;578;48.408;10.004;2022-09-09T14:56:04;4.00;;;1.20;;
1178;SDS011;578;48.408;10.004;2022-09-09T14:58:31;3.45;;;1.00;;
1178;SDS011;578;48.408;10.004;2022-09-09T15:01:03;3.00;;;0.88;;
1178;SDS011;578;48.408;10.004;2022-09-09T15:03:30;4.15;;;1.00;;
1178;SDS011;578;48.408;10.004;2022-09-09T15:05:57;2.72;;;1.10;;
1178;SDS011;578;48.408;10.004;2022-09-09T15:08:25;3.60;;;1.00;;
1178;SDS011;578;48.408;10.004;2022-09-09T15:10:58;5.30;;;1.85;;
1178;SDS011;578;48.408;10.004;2022-09-09T15:13:25;2.47;;;1.00;;
1178;SDS011;578;48.408;10.004;2022-09-09T15:15:52;2.30;;;0.85;;
1178;SDS011;578;48.408;10.004;2022-09-09T15:18:19;3.67;;;1.00;;
1178;SDS011;578;48.408;10.004;2022-09-09T15:20:46;4.00;;;1.10;;
1178;SDS011;578;48.408;10.004;2022-09-09T15:23:13;2.55;;;1.10;;
1178;SDS011;578;48.408;10.004;2022-09-09T15:25:50;3.53;;;1.10;;
1178;SDS011;578;48.408;10.004;2022-09-09T15:28:18;4.40;;;0.95;;
1178;SDS011;578;48.408;10.004;2022-09-09T15:30:47;3.08;;;0.90;;
1178;SDS011;578;48.408;10.004;2022-09-09T15:33:14;4.55;;;1.00;;
1178;SDS011;578;48.408;10.004;2022-09-09T15:35:41;2.95;;;0.90;;
1178;SDS011;578;48.408;10.004;2022-09-09T15:38:08;3.23;;;0.80;;
1178;SDS011;578;48.408;10.004;2022-09-09T15:40:34;2.58;;;0.90;;
1178;SDS011;578;48.408;10.004;2022-09-09T15:43:02;2.30;;;0.90;;
1178;SDS011;578;48.408;10.004;2022-09-09T15:45:31;2.90;;;1.20;;